Time;durP1;ratioP1;P1;durP2;ratioP2;P2;SDS_P1;SDS_P2;PMS_P1;PMS_P2;Temp;Humidity;BMP_temperature;BMP_pressure;BME280_temperature;BME280_humidity;BME280_pressure;Samples;Min_cycle;Max_cycle;Signal;HPM_P1;HPM_P2
2023/08/19 00:01:39;;;;;;;11.00;10.10;;;19.80;99.90;;;;;;5051364;28;20469;-57
2023/08/19 00:04:07;;;;;;;11.83;10.80;;;19.80;99.90;;;;;;5041072;28;20497;-57
2023/08/19 00:06:37;;;;;;;11.70;10.70;;;19.80;99.90;;;;;;5049837;28;22427;-57
2023/08/19 00:09:07;;;;;;;11.77;10.77;;;19.80;99.90;;;;;;5047033;28;20986;-57
2023/08/19 00:11:36;;;;;;;10.57;9.77;;;19.80;99.90;;;;;;5049953;28;21068;-57
2023/08/19 00:14:05;;;;;;;10.80;9.90;;;19.70;99.90;;;;;;5052622;28;20580;-56
2023/08/19 00:16:34;;;;;;;11.60;10.53;;;19.70;99.90;;;;;;5047981;28;20605;-56
2023/08/19 00:19:03;;;;;;;11.87;10.87;;;19.70;99.90;;;;;;5051205;28;20488;-57
2023/08/19 00:21:31;;;;;;;12.17;11.00;;;19.70;99.90;;;;;;5053096;28;20963;-57
2023/08/19 00:24:00;;;;;;;12.50;11.50;;;19.70;99.90;;;;;;5052491;28;20904;-57
2023/08/19 00:26:28;;;;;;;11.90;10.90;;;19.70;99.90;;;;;;5052224;28;20616;-57
2023/08/19 00:28:55;;;;;;;12.00;11.10;;;19.70;99.90;;;;;;5051191;28;20580;-57
2023/08/19 00:31:25;;;;;;;12.33;11.30;;;19.70;99.90;;;;;;5054342;28;20497;-57
2023/08/19 00:33:53;;;;;;;12.47;11.43;;;19.70;99.90;;;;;;5056673;28;20583;-56
2023/08/19 00:36:22;;;;;;;12.63;11.63;;;19.70;99.90;;;;;;5055709;28;20573;-57
2023/08/19 00:38:51;;;;;;;13.20;12.10;;;19.70;99.90;;;;;;5051652;28;20866;-57
2023/08/19 00:41:21;;;;;;;12.50;11.60;;;19.80;99.90;;;;;;5055576;28;20473;-57
2023/08/19 00:43:49;;;;;;;13.40;12.10;;;19.80;99.90;;;;;;5048471;28;20710;-55
2023/08/19 00:46:18;;;;;;;12.80;11.70;;;19.80;99.90;;;;;;5052793;28;20593;-57
2023/08/19 00:48:46;;;;;;;12.27;11.27;;;19.80;99.90;;;;;;5052141;28;20501;-57
2023/08/19 00:51:14;;;;;;;12.40;11.40;;;19.80;99.90;;;;;;5057092;28;20965;-56
2023/08/19 00:53:44;;;;;;;11.63;10.83;;;19.70;99.90;;;;;;5052615;28;20577;-57
2023/08/19 00:56:12;;;;;;;12.87;11.77;;;19.70;99.90;;;;;;5053835;28;20997;-56
2023/08/19 00:58:40;;;;;;;13.80;12.50;;;19.70;99.90;;;;;;5055450;28;20537;-56
2023/08/19 01:01:08;;;;;;;12.10;11.10;;;19.60;99.90;;;;;;5052670;28;20517;-57
2023/08/19 01:03:36;;;;;;;13.10;11.90;;;19.60;99.90;;;;;;5042971;28;21041;-57
2023/08/19 01:06:17;;;;;;;11.50;10.70;;;19.60;99.90;;;;;;5051941;28;20523;-56
2023/08/19 01:08:59;;;;;;;12.43;11.53;;;19.60;99.90;;;;;;5041803;28;20574;-57
2023/08/19 01:11:52;;;;;;;12.17;11.20;;;19.60;99.90;;;;;;5047873;28;20566;-56
2023/08/19 01:14:36;;;;;;;13.17;12.10;;;19.60;99.90;;;;;;5044085;28;20486;-57
2023/08/19 01:17:06;;;;;;;13.37;12.27;;;19.60;99.90;;;;;;5046546;28;20956;-57
2023/08/19 01:19:36;;;;;;;14.37;12.93;;;19.60;99.90;;;;;;5049171;28;20488;-56
2023/08/19 01:22:07;;;;;;;14.20;12.83;;;19.60;99.90;;;;;;5044595;28;20473;-57
2023/08/19 01:24:38;;;;;;;14.70;12.83;;;19.60;99.90;;;;;;5046650;28;20494;-56
2023/08/19 01:27:06;;;;;;;15.40;14.10;;;19.60;99.90;;;;;;5046713;28;20502;-56
2023/08/19 01:29:34;;;;;;;15.20;14.00;;;19.70;99.90;;;;;;5043919;28;20473;-57
2023/08/19 01:32:03;;;;;;;15.80;14.27;;;19.70;99.90;;;;;;5046456;28;21341;-57
2023/08/19 01:34:31;;;;;;;14.13;12.93;;;19.70;99.90;;;;;;5051337;28;20517;-57
2023/08/19 01:37:07;;;;;;;14.57;13.23;;;19.70;99.90;;;;;;5050488;28;21155;-57
2023/08/19 01:39:38;;;;;;;15.50;14.10;;;19.70;99.90;;;;;;5053593;28;20501;-55
2023/08/19 01:42:08;;;;;;;14.90;13.60;;;19.70;99.90;;;;;;5052428;28;20475;-56
2023/08/19 01:44:38;;;;;;;14.53;13.43;;;19.70;99.90;;;;;;5048063;28;20590;-56
2023/08/19 01:47:13;;;;;;;15.00;13.67;;;19.80;99.90;;;;;;5055254;28;20517;-56
2023/08/19 01:49:41;;;;;;;14.37;13.10;;;19.80;99.90;;;;;;5049768;28;20481;-57
2023/08/19 01:52:09;;;;;;;15.27;13.97;;;19.80;99.90;;;;;;5049595;28;20473;-57
2023/08/19 01:54:38;;;;;;;14.30;13.20;;;19.80;99.90;;;;;;5050948;28;20552;-56
2023/08/19 01:57:07;;;;;;;15.57;14.37;;;19.80;99.90;;;;;;5048716;28;20469;-56
2023/08/19 01:59:35;;;;;;;15.00;13.60;;;19.80;99.90;;;;;;5044972;28;20644;-56
2023/08/19 02:02:04;;;;;;;15.60;14.00;;;19.80;99.90;;;;;;5049677;28;20915;-57
2023/08/19 02:04:32;;;;;;;14.73;13.43;;;19.80;99.90;;;;;;5044441;28;20627;-57
2023/08/19 02:07:00;;;;;;;14.93;13.73;;;19.80;99.90;;;;;;5046510;28;20465;-57
2023/08/19 02:09:29;;;;;;;15.30;14.03;;;19.80;99.90;;;;;;5039125;28;20477;-55
2023/08/19 02:12:00;;;;;;;16.37;15.07;;;19.80;99.90;;;;;;5048495;28;20552;-57
2023/08/19 02:14:28;;;;;;;16.03;14.80;;;19.80;99.90;;;;;;5040480;28;20580;-56
2023/08/19 02:16:56;;;;;;;14.93;13.67;;;19.80;99.90;;;;;;5045725;28;20633;-57
2023/08/19 02:19:24;;;;;;;14.97;13.80;;;19.80;99.90;;;;;;5050947;28;20598;-57
2023/08/19 02:21:52;;;;;;;14.47;13.27;;;19.90;99.90;;;;;;5053137;28;20469;-57
2023/08/19 02:24:20;;;;;;;14.70;13.60;;;19.90;99.90;;;;;;5053787;28;20525;-57
2023/08/19 02:26:47;;;;;;;15.53;14.23;;;19.80;99.90;;;;;;5050559;28;20577;-57
2023/08/19 02:29:17;;;;;;;14.13;13.03;;;19.80;99.90;;;;;;5057872;28;20512;-55
2023/08/19 02:31:45;;;;;;;15.03;13.73;;;19.80;99.90;;;;;;5051501;28;20554;-57
2023/08/19 02:34:13;;;;;;;16.30;15.00;;;19.80;99.90;;;;;;5053011;28;20507;-55
2023/08/19 02:36:41;;;;;;;15.03;13.77;;;19.80;99.90;;;;;;5051255;28;20489;-57
2023/08/19 02:39:09;;;;;;;15.23;14.03;;;19.80;99.90;;;;;;5052989;28;20560;-57
2023/08/19 02:41:37;;;;;;;15.40;14.10;;;19.80;99.90;;;;;;5055283;28;20565;-57
2023/08/19 02:44:05;;;;;;;15.00;13.70;;;19.80;99.90;;;;;;5047559;28;20603;-57
2023/08/19 02:46:34;;;;;;;16.00;14.50;;;19.90;99.90;;;;;;5052347;28;21062;-56
2023/08/19 02:49:03;;;;;;;14.83;13.73;;;19.80;99.90;;;;;;5052533;28;20575;-57
2023/08/19 02:51:31;;;;;;;15.60;14.20;;;19.80;99.90;;;;;;5052001;28;20942;-57
2023/08/19 02:53:59;;;;;;;14.83;13.60;;;19.90;99.90;;;;;;5045850;28;20490;-57
2023/08/19 02:56:27;;;;;;;15.43;14.13;;;19.80;99.90;;;;;;5052464;28;20509;-55
2023/08/19 02:58:54;;;;;;;14.90;13.63;;;19.80;99.90;;;;;;5052128;28;20584;-57
2023/08/19 03:01:23;;;;;;;15.57;14.17;;;19.90;99.90;;;;;;5057396;28;20461;-57
2023/08/19 03:03:52;;;;;;;14.67;13.47;;;19.90;99.90;;;;;;5054397;28;21297;-57
2023/08/19 03:06:20;;;;;;;16.77;15.30;;;19.80;99.90;;;;;;5055512;28;20554;-57
2023/08/19 03:08:48;;;;;;;15.37;14.20;;;19.90;99.90;;;;;;5053375;28;20524;-56
2023/08/19 03:11:16;;;;;;;15.17;13.97;;;19.90;99.90;;;;;;5053177;28;20560;-56
2023/08/19 03:13:44;;;;;;;14.80;13.63;;;19.90;99.90;;;;;;5047565;28;20589;-57
2023/08/19 03:16:12;;;;;;;14.23;13.13;;;19.90;99.90;;;;;;5053125;28;20551;-57
2023/08/19 03:18:40;;;;;;;15.67;14.40;;;19.90;99.90;;;;;;5050751;28;20527;-57
2023/08/19 03:21:09;;;;;;;16.33;14.83;;;19.90;99.90;;;;;;5054047;28;20492;-55
2023/08/19 03:23:37;;;;;;;15.57;14.30;;;19.90;99.90;;;;;;5056129;28;20482;-56
2023/08/19 03:26:05;;;;;;;15.93;14.60;;;19.90;99.90;;;;;;5044927;28;20592;-57
2023/08/19 03:28:33;;;;;;;15.03;13.73;;;19.90;99.90;;;;;;5051434;28;20560;-57
2023/08/19 03:31:08;;;;;;;15.73;14.30;;;19.80;99.90;;;;;;5053490;28;20588;-56
2023/08/19 03:33:36;;;;;;;15.07;13.77;;;19.80;99.90;;;;;;5055133;28;20528;-55
2023/08/19 03:36:05;;;;;;;16.50;15.07;;;19.80;99.90;;;;;;5050226;28;20493;-56
2023/08/19 03:38:34;;;;;;;15.70;14.40;;;19.80;99.90;;;;;;5053351;28;20501;-57
2023/08/19 03:41:02;;;;;;;16.00;14.57;;;19.80;99.90;;;;;;5051974;28;20472;-57
2023/08/19 03:43:30;;;;;;;16.03;14.73;;;19.80;99.90;;;;;;5052179;28;20507;-57
2023/08/19 03:45:58;;;;;;;15.23;13.83;;;19.80;99.90;;;;;;5048444;27;20500;-56
2023/08/19 03:48:26;;;;;;;15.23;13.93;;;19.70;99.90;;;;;;5045836;28;20466;-56
2023/08/19 03:50:54;;;;;;;15.70;14.50;;;19.70;99.90;;;;;;5050670;28;20966;-55
2023/08/19 03:53:22;;;;;;;15.80;14.50;;;19.70;99.90;;;;;;5055217;28;20495;-56
2023/08/19 03:55:51;;;;;;;15.63;14.33;;;19.70;99.90;;;;;;5052391;28;20569;-56
2023/08/19 03:58:19;;;;;;;15.87;14.47;;;19.70;99.90;;;;;;5042717;28;20564;-55
2023/08/19 04:00:47;;;;;;;16.17;14.87;;;19.70;99.90;;;;;;5050120;28;20905;-56
2023/08/19 04:03:15;;;;;;;16.43;14.90;;;19.70;99.90;;;;;;5051012;28;20504;-55
2023/08/19 04:05:43;;;;;;;19.40;14.30;;;19.70;99.90;;;;;;5050512;28;20516;-56
2023/08/19 04:08:11;;;;;;;15.83;14.53;;;19.70;99.90;;;;;;5048451;28;20474;-57
2023/08/19 04:10:39;;;;;;;16.30;15.10;;;19.70;99.90;;;;;;5054144;28;20915;-57
2023/08/19 04:13:08;;;;;;;15.97;14.47;;;19.70;99.90;;;;;;5052944;28;20502;-56
2023/08/19 04:15:37;;;;;;;15.70;14.20;;;19.60;99.90;;;;;;5055507;28;20594;-55
2023/08/19 04:18:07;;;;;;;16.73;13.93;;;19.60;99.90;;;;;;5050970;28;20991;-57
2023/08/19 04:20:38;;;;;;;15.43;14.23;;;19.60;99.90;;;;;;5049508;28;20477;-56
2023/08/19 04:23:06;;;;;;;15.43;14.03;;;19.60;99.90;;;;;;5054748;28;20507;-56
2023/08/19 04:25:34;;;;;;;15.70;14.30;;;19.60;99.90;;;;;;5047747;28;20576;-57
2023/08/19 04:28:02;;;;;;;15.50;14.30;;;19.70;99.90;;;;;;5046178;28;20470;-57
2023/08/19 04:30:32;;;;;;;16.00;14.00;;;19.60;99.90;;;;;;5049829;28;20515;-56
2023/08/19 04:33:00;;;;;;;15.23;13.90;;;19.60;99.90;;;;;;5048590;28;20491;-57
2023/08/19 04:35:29;;;;;;;15.63;14.23;;;19.70;99.90;;;;;;5045704;28;20896;-57
2023/08/19 04:37:57;;;;;;;15.67;14.33;;;19.60;99.90;;;;;;5049482;28;20465;-58
2023/08/19 04:40:25;;;;;;;15.37;14.07;;;19.70;99.90;;;;;;5053728;28;20496;-57
2023/08/19 04:42:53;;;;;;;15.57;14.23;;;19.60;99.90;;;;;;5050191;28;20583;-57
2023/08/19 04:45:21;;;;;;;15.33;14.03;;;19.60;99.90;;;;;;5050989;28;20492;-57
2023/08/19 04:47:50;;;;;;;14.90;13.20;;;19.60;99.90;;;;;;5051133;28;20471;-57
2023/08/19 04:50:21;;;;;;;15.83;14.53;;;19.70;99.90;;;;;;5048289;28;20474;-57
2023/08/19 04:52:50;;;;;;;16.43;14.73;;;19.70;99.90;;;;;;5047293;28;20493;-57
2023/08/19 04:55:18;;;;;;;15.63;14.10;;;19.70;99.90;;;;;;5046090;28;20656;-57
2023/08/19 04:57:46;;;;;;;14.60;13.40;;;19.70;99.90;;;;;;5053722;28;20461;-57
2023/08/19 05:00:15;;;;;;;14.80;13.53;;;19.70;99.90;;;;;;5047313;28;20524;-56
2023/08/19 05:02:43;;;;;;;15.93;14.53;;;19.70;99.90;;;;;;5045808;28;20521;-57
2023/08/19 05:05:12;;;;;;;15.20;13.90;;;19.80;99.90;;;;;;5046800;28;20604;-56
2023/08/19 05:07:40;;;;;;;15.50;14.30;;;19.80;99.90;;;;;;5043420;28;20492;-57
2023/08/19 05:10:10;;;;;;;14.57;13.33;;;19.80;99.90;;;;;;5046409;28;20465;-56
2023/08/19 05:12:38;;;;;;;16.33;14.40;;;19.80;99.90;;;;;;5048312;28;20489;-57
2023/08/19 05:15:07;;;;;;;15.20;14.00;;;19.80;99.90;;;;;;5045975;28;20489;-56
2023/08/19 05:17:35;;;;;;;15.40;14.10;;;19.80;99.90;;;;;;5041443;28;20971;-56
2023/08/19 05:20:04;;;;;;;15.20;13.90;;;19.80;99.90;;;;;;5047611;28;20482;-57
2023/08/19 05:22:34;;;;;;;14.87;13.67;;;19.80;99.90;;;;;;5045761;28;20496;-57
2023/08/19 05:25:02;;;;;;;14.30;13.20;;;19.80;99.90;;;;;;5040471;28;21043;-56
2023/08/19 05:27:30;;;;;;;13.80;12.70;;;19.80;99.90;;;;;;5046208;28;20506;-56
2023/08/19 05:29:59;;;;;;;16.10;14.57;;;19.90;99.90;;;;;;5049887;28;20477;-57
2023/08/19 05:32:27;;;;;;;13.60;12.40;;;19.90;99.90;;;;;;5046332;28;20473;-55
2023/08/19 05:34:55;;;;;;;14.33;12.93;;;19.90;99.90;;;;;;5044898;28;21196;-57
2023/08/19 05:37:23;;;;;;;14.17;12.97;;;19.90;99.90;;;;;;5053662;28;20461;-56
2023/08/19 05:39:53;;;;;;;13.50;12.40;;;19.90;99.90;;;;;;5035461;28;20559;-57
2023/08/19 05:42:21;;;;;;;13.37;12.27;;;20.00;99.90;;;;;;5051294;28;20474;-55
2023/08/19 05:44:49;;;;;;;14.17;13.00;;;20.00;99.90;;;;;;5049405;28;20558;-56
2023/08/19 05:47:17;;;;;;;14.50;13.00;;;20.00;99.90;;;;;;5050916;28;20592;-56
2023/08/19 05:49:45;;;;;;;15.13;13.90;;;20.10;99.90;;;;;;5042106;28;20484;-56
2023/08/19 05:52:13;;;;;;;14.30;13.10;;;20.10;99.90;;;;;;5054753;28;20499;-56
2023/08/19 05:54:41;;;;;;;13.17;12.10;;;20.20;99.90;;;;;;5045457;28;21037;-58
2023/08/19 05:57:10;;;;;;;14.03;12.73;;;20.20;99.90;;;;;;5044038;28;20478;-55
2023/08/19 05:59:38;;;;;;;14.30;13.20;;;20.30;99.90;;;;;;5051744;28;20480;-56
2023/08/19 06:02:07;;;;;;;14.10;13.00;;;20.30;99.90;;;;;;5047730;28;20475;-56
2023/08/19 06:04:35;;;;;;;13.50;12.30;;;20.30;99.90;;;;;;5048088;28;20950;-57
2023/08/19 06:07:03;;;;;;;14.67;13.37;;;20.40;99.90;;;;;;5049063;28;20513;-57
2023/08/19 06:09:31;;;;;;;13.30;12.27;;;20.40;99.90;;;;;;5041008;28;20477;-57
2023/08/19 06:11:59;;;;;;;13.60;12.40;;;20.50;99.90;;;;;;5037148;28;20556;-57
2023/08/19 06:14:28;;;;;;;13.50;12.30;;;20.60;99.90;;;;;;5039910;28;20970;-57
2023/08/19 06:16:56;;;;;;;13.00;11.90;;;20.60;99.90;;;;;;5041662;28;20467;-57
2023/08/19 06:19:24;;;;;;;14.30;12.83;;;20.60;99.90;;;;;;5047284;28;21356;-57
2023/08/19 06:21:53;;;;;;;13.53;12.53;;;20.70;99.90;;;;;;5040613;28;21036;-56
2023/08/19 06:24:21;;;;;;;13.37;12.27;;;20.70;99.90;;;;;;5038187;28;22449;-57
2023/08/19 06:26:49;;;;;;;12.70;11.80;;;20.70;99.90;;;;;;5041515;28;20486;-57
2023/08/19 06:29:17;;;;;;;13.80;12.70;;;20.70;99.90;;;;;;5045658;28;20473;-57
2023/08/19 06:31:47;;;;;;;13.70;12.60;;;20.70;99.90;;;;;;5043009;28;20918;-57
2023/08/19 06:34:15;;;;;;;13.10;12.03;;;20.70;99.90;;;;;;5044438;28;20517;-56
2023/08/19 06:36:47;;;;;;;13.40;12.30;;;20.80;99.90;;;;;;5039917;28;20493;-57
2023/08/19 06:39:24;;;;;;;13.17;12.17;;;20.80;99.90;;;;;;5043772;28;21176;-57
2023/08/19 06:41:59;;;;;;;13.93;12.63;;;20.80;99.90;;;;;;5049878;28;20468;-56
2023/08/19 06:44:29;;;;;;;13.40;12.20;;;20.90;99.90;;;;;;5050830;28;20577;-57
2023/08/19 06:47:02;;;;;;;13.30;12.37;;;20.90;99.90;;;;;;5045575;28;20493;-56
2023/08/19 06:49:31;;;;;;;14.20;12.90;;;21.00;99.90;;;;;;5044521;28;20469;-57
2023/08/19 06:51:59;;;;;;;13.70;12.60;;;21.00;99.90;;;;;;5033588;28;20525;-56
2023/08/19 06:54:27;;;;;;;13.70;12.57;;;21.10;99.90;;;;;;5049660;28;20586;-57
2023/08/19 06:57:01;;;;;;;13.77;12.77;;;21.10;99.90;;;;;;5046724;28;20600;-58
2023/08/19 06:59:35;;;;;;;14.00;12.70;;;21.20;99.90;;;;;;5048407;28;20478;-57
2023/08/19 07:02:05;;;;;;;13.93;12.63;;;21.30;99.90;;;;;;5046984;28;20815;-56
2023/08/19 07:04:35;;;;;;;13.20;11.97;;;21.40;99.90;;;;;;5026764;28;20601;-57
2023/08/19 07:07:05;;;;;;;14.37;13.17;;;21.50;99.90;;;;;;5036532;28;20497;-57
2023/08/19 07:09:35;;;;;;;13.70;12.70;;;21.50;99.90;;;;;;5040410;28;20504;-56
2023/08/19 07:12:04;;;;;;;14.03;12.80;;;21.60;99.90;;;;;;5051491;28;20568;-56
2023/08/19 07:14:35;;;;;;;13.80;12.70;;;21.60;99.90;;;;;;5048193;28;20584;-57
2023/08/19 07:17:06;;;;;;;12.97;12.03;;;21.70;99.90;;;;;;5046090;28;20467;-56
2023/08/19 07:19:38;;;;;;;14.00;12.70;;;21.80;99.90;;;;;;5033839;28;20952;-55
2023/08/19 07:22:07;;;;;;;13.43;12.23;;;21.90;99.90;;;;;;5041915;28;20595;-57
2023/08/19 07:24:36;;;;;;;13.43;12.40;;;22.00;99.90;;;;;;5042010;28;20616;-58
2023/08/19 07:27:06;;;;;;;13.33;12.33;;;22.00;99.90;;;;;;5047803;28;20998;-57
2023/08/19 07:29:37;;;;;;;14.07;12.70;;;22.10;99.90;;;;;;5044562;28;20892;-57
2023/08/19 07:32:11;;;;;;;14.77;13.37;;;22.20;99.90;;;;;;5046142;28;20465;-58
2023/08/19 07:34:39;;;;;;;13.57;12.47;;;22.20;99.90;;;;;;5047869;28;20477;-58
2023/08/19 07:37:07;;;;;;;13.40;12.27;;;22.30;99.90;;;;;;5039576;28;21079;-56
2023/08/19 07:39:39;;;;;;;13.33;12.20;;;22.40;99.90;;;;;;5039584;28;20611;-55
2023/08/19 07:42:07;;;;;;;13.73;12.70;;;22.40;99.90;;;;;;5042888;28;20477;-57
2023/08/19 07:44:35;;;;;;;12.80;11.90;;;22.50;99.90;;;;;;5046214;28;20631;-58
2023/08/19 07:47:03;;;;;;;12.33;11.43;;;22.50;99.90;;;;;;5049677;28;20797;-57
2023/08/19 07:49:33;;;;;;;13.20;12.10;;;22.70;99.90;;;;;;5048848;28;20522;-55
2023/08/19 07:52:02;;;;;;;14.20;13.03;;;22.80;99.90;;;;;;5039624;28;21168;-56
2023/08/19 07:54:31;;;;;;;13.83;12.57;;;22.80;99.90;;;;;;5041590;28;21348;-55
2023/08/19 07:56:59;;;;;;;13.40;12.40;;;22.80;99.90;;;;;;5033612;28;20473;-56
2023/08/19 07:59:27;;;;;;;13.00;11.93;;;23.00;99.90;;;;;;5046156;28;20553;-55
2023/08/19 08:01:55;;;;;;;13.87;12.67;;;23.00;99.90;;;;;;5044016;28;20527;-55
2023/08/19 08:04:24;;;;;;;12.77;11.87;;;23.10;99.90;;;;;;5040118;28;20575;-56
2023/08/19 08:06:55;;;;;;;13.40;12.40;;;23.10;99.90;;;;;;5050225;28;20481;-57
2023/08/19 08:09:23;;;;;;;14.17;12.70;;;23.20;99.90;;;;;;5040134;28;20525;-57
2023/08/19 08:11:52;;;;;;;13.37;12.30;;;23.30;99.90;;;;;;5041083;28;20570;-56
2023/08/19 08:14:20;;;;;;;12.60;11.70;;;23.40;99.90;;;;;;5041872;28;21183;-55
2023/08/19 08:16:48;;;;;;;12.40;11.30;;;23.50;99.90;;;;;;5042414;28;22525;-54
2023/08/19 08:19:16;;;;;;;13.30;12.40;;;23.60;99.90;;;;;;5035411;28;21522;-56
2023/08/19 08:21:44;;;;;;;12.83;11.83;;;23.70;99.90;;;;;;5048866;28;20995;-55
2023/08/19 08:24:13;;;;;;;12.83;11.73;;;23.80;99.90;;;;;;5050522;28;20613;-56
2023/08/19 08:26:41;;;;;;;12.77;11.80;;;24.00;99.90;;;;;;5052459;28;20482;-55
2023/08/19 08:29:09;;;;;;;12.10;11.20;;;24.00;99.90;;;;;;5054815;28;20580;-55
2023/08/19 08:31:37;;;;;;;12.40;11.40;;;24.20;99.90;;;;;;5052662;28;20462;-56
2023/08/19 08:34:06;;;;;;;12.50;11.63;;;24.20;99.90;;;;;;5053189;28;20518;-56
2023/08/19 08:36:34;;;;;;;12.60;11.53;;;24.40;99.90;;;;;;5058225;28;20535;-56
2023/08/19 08:39:02;;;;;;;12.63;11.73;;;24.50;99.90;;;;;;5055770;28;20494;-56
2023/08/19 08:41:33;;;;;;;13.00;11.90;;;24.60;99.90;;;;;;5054396;28;20544;-56
2023/08/19 08:44:01;;;;;;;12.47;11.47;;;24.70;99.90;;;;;;5054423;28;20532;-55
2023/08/19 08:46:30;;;;;;;13.20;12.30;;;24.80;99.90;;;;;;5052820;28;20496;-57
2023/08/19 08:48:59;;;;;;;13.57;12.50;;;24.80;99.90;;;;;;5054112;28;20500;-56
2023/08/19 08:51:28;;;;;;;11.73;10.83;;;24.80;99.90;;;;;;5055445;28;20920;-56
2023/08/19 08:53:57;;;;;;;12.13;11.23;;;24.80;99.90;;;;;;5055008;28;20935;-56
2023/08/19 08:56:28;;;;;;;12.50;11.63;;;24.90;99.90;;;;;;5046965;28;20490;-55
2023/08/19 08:58:59;;;;;;;12.13;11.30;;;25.00;99.90;;;;;;5045348;28;20466;-57
2023/08/19 09:01:28;;;;;;;12.70;11.90;;;25.10;99.90;;;;;;5046537;28;20477;-56
2023/08/19 09:04:02;;;;;;;12.67;11.77;;;25.20;99.90;;;;;;5048492;28;20500;-57
2023/08/19 09:06:32;;;;;;;12.67;11.87;;;25.40;99.90;;;;;;5046635;28;20583;-56
2023/08/19 09:09:02;;;;;;;13.23;12.23;;;25.50;99.90;;;;;;5048170;28;20617;-57
2023/08/19 09:11:35;;;;;;;12.97;12.10;;;25.60;99.90;;;;;;5051179;28;20476;-56
2023/08/19 09:14:13;;;;;;;12.57;11.57;;;25.70;99.90;;;;;;5049798;28;21349;-57
2023/08/19 09:16:41;;;;;;;12.60;11.60;;;25.70;99.90;;;;;;5049394;28;21399;-56
2023/08/19 09:19:09;;;;;;;11.90;10.90;;;25.70;99.90;;;;;;5045103;28;20473;-57
2023/08/19 09:21:38;;;;;;;12.40;11.50;;;25.80;99.90;;;;;;5050943;28;20573;-57
2023/08/19 09:24:07;;;;;;;13.13;12.13;;;25.80;99.90;;;;;;5054136;28;20967;-57
2023/08/19 09:26:37;;;;;;;12.43;11.57;;;25.80;99.90;;;;;;5052551;28;20478;-56
2023/08/19 09:29:07;;;;;;;13.43;12.53;;;25.70;99.90;;;;;;5047278;28;20536;-57
2023/08/19 09:31:38;;;;;;;12.30;11.30;;;25.70;99.90;;;;;;5047757;28;20497;-57
2023/08/19 09:34:06;;;;;;;12.10;11.30;;;25.80;99.90;;;;;;5047960;28;20868;-57
2023/08/19 09:36:34;;;;;;;13.00;12.10;;;25.80;99.90;;;;;;5052337;28;20946;-57
2023/08/19 09:39:03;;;;;;;11.93;11.10;;;25.90;99.90;;;;;;5044787;28;20489;-56
2023/08/19 09:41:31;;;;;;;12.67;11.70;;;25.90;99.90;;;;;;5050592;28;20471;-58
2023/08/19 09:43:59;;;;;;;12.17;11.27;;;26.20;99.90;;;;;;5053321;28;20581;-58
2023/08/19 09:46:38;;;;;;;12.97;12.07;;;26.30;99.90;;;;;;5054504;28;20568;-56
2023/08/19 09:49:10;;;;;;;13.00;12.07;;;26.50;99.90;;;;;;5053584;28;20489;-55
2023/08/19 09:51:38;;;;;;;12.63;11.63;;;26.60;99.90;;;;;;5051438;28;20484;-56
2023/08/19 09:54:11;;;;;;;13.67;12.60;;;26.60;99.90;;;;;;5055186;28;20489;-57
2023/08/19 09:56:39;;;;;;;11.97;11.10;;;26.60;99.90;;;;;;5050814;28;20535;-55
2023/08/19 09:59:07;;;;;;;12.87;11.87;;;26.60;99.90;;;;;;5048018;28;20466;-56
2023/08/19 10:01:36;;;;;;;13.40;12.50;;;26.60;99.90;;;;;;5050793;28;20473;-57
2023/08/19 10:04:05;;;;;;;13.67;12.63;;;26.70;99.90;;;;;;5046285;28;20551;-55
2023/08/19 10:06:38;;;;;;;13.50;12.50;;;26.70;99.90;;;;;;5048786;28;20482;-55
2023/08/19 10:09:09;;;;;;;12.87;11.87;;;26.70;99.90;;;;;;5048389;28;20590;-57
2023/08/19 10:11:43;;;;;;;13.10;12.20;;;26.70;99.90;;;;;;5042155;28;24734;-58
2023/08/19 10:14:12;;;;;;;12.97;12.07;;;26.80;99.90;;;;;;5035044;28;20990;-61
2023/08/19 10:16:45;;;;;;;13.80;12.70;;;26.80;99.90;;;;;;5043963;28;20496;-59
2023/08/19 10:19:17;;;;;;;14.33;13.13;;;26.90;99.90;;;;;;5038332;28;20470;-61
2023/08/19 10:21:46;;;;;;;14.17;13.17;;;27.00;99.90;;;;;;5048412;28;20540;-60
2023/08/19 10:24:17;;;;;;;12.63;11.83;;;27.10;99.90;;;;;;5041842;28;20493;-57
2023/08/19 10:26:47;;;;;;;14.13;13.23;;;27.10;99.90;;;;;;5043350;28;20579;-56
2023/08/19 10:29:16;;;;;;;14.83;13.83;;;27.20;99.90;;;;;;5045203;28;20535;-55
2023/08/19 10:31:46;;;;;;;14.23;13.33;;;27.30;99.90;;;;;;5041611;28;20485;-54
2023/08/19 10:34:26;;;;;;;14.37;13.27;;;27.40;99.90;;;;;;5042913;28;20486;-56
2023/08/19 10:37:07;;;;;;;14.13;13.13;;;27.50;99.90;;;;;;5047781;28;20481;-56
2023/08/19 10:39:36;;;;;;;13.97;12.97;;;27.60;99.90;;;;;;5051820;28;20469;-57
2023/08/19 10:42:05;;;;;;;14.87;13.67;;;27.60;99.90;;;;;;5047380;28;20466;-57
2023/08/19 10:44:34;;;;;;;13.77;12.90;;;27.70;99.90;;;;;;5047466;28;20584;-56
2023/08/19 10:47:13;;;;;;;14.20;13.20;;;27.80;99.90;;;;;;5044701;28;20484;-59
2023/08/19 10:49:42;;;;;;;15.20;13.90;;;27.90;99.90;;;;;;5048095;28;20493;-56
2023/08/19 10:52:20;;;;;;;14.70;13.40;;;28.00;99.90;;;;;;5045389;28;22880;-55
2023/08/19 10:54:49;;;;;;;13.80;12.90;;;28.10;99.90;;;;;;5041699;28;20505;-56
2023/08/19 10:57:21;;;;;;;14.57;13.37;;;28.10;99.90;;;;;;5044855;28;20468;-56
2023/08/19 10:59:56;;;;;;;13.60;12.70;;;28.20;99.90;;;;;;5032310;28;20482;-56
2023/08/19 11:02:26;;;;;;;13.23;11.93;;;28.30;99.90;;;;;;5044273;28;20466;-56
2023/08/19 11:04:55;;;;;;;15.30;14.13;;;28.30;99.90;;;;;;5031274;28;20571;-57
2023/08/19 11:07:25;;;;;;;12.93;12.03;;;28.40;99.90;;;;;;5030189;28;20489;-55
2023/08/19 11:09:54;;;;;;;13.50;12.60;;;28.40;99.90;;;;;;5047527;28;20503;-55
2023/08/19 11:12:26;;;;;;;13.67;12.77;;;28.50;99.90;;;;;;5037169;28;20478;-56
2023/08/19 11:14:55;;;;;;;12.60;11.70;;;28.70;99.90;;;;;;5030543;28;20482;-56
2023/08/19 11:17:30;;;;;;;13.67;12.60;;;28.90;99.90;;;;;;5029287;28;20472;-55
2023/08/19 11:19:58;;;;;;;14.87;13.80;;;29.00;99.90;;;;;;5039915;28;20845;-55
2023/08/19 11:22:26;;;;;;;13.23;12.43;;;29.20;99.90;;;;;;5045735;28;21280;-58
2023/08/19 11:24:54;;;;;;;13.07;12.17;;;29.40;99.90;;;;;;5036577;28;20483;-58
2023/08/19 11:27:22;;;;;;;13.13;12.33;;;29.50;99.90;;;;;;5039297;28;20469;-57
2023/08/19 11:29:50;;;;;;;14.00;13.10;;;29.50;99.90;;;;;;5043455;28;20632;-58
2023/08/19 11:32:19;;;;;;;13.80;12.70;;;29.50;99.90;;;;;;5041379;28;20598;-58
2023/08/19 11:34:49;;;;;;;14.57;13.57;;;29.50;99.90;;;;;;5044839;28;21461;-58
2023/08/19 11:37:17;;;;;;;13.30;12.40;;;29.50;99.90;;;;;;5044506;28;20554;-58
2023/08/19 11:39:46;;;;;;;14.07;13.10;;;29.60;99.90;;;;;;5037963;28;20461;-57
2023/08/19 11:42:14;;;;;;;14.20;13.30;;;29.60;99.90;;;;;;5035372;28;20488;-58
2023/08/19 11:44:43;;;;;;;14.00;13.00;;;29.60;99.90;;;;;;5042110;28;20470;-59
2023/08/19 11:47:12;;;;;;;14.73;13.67;;;29.60;99.90;;;;;;5043013;28;20597;-59
2023/08/19 11:49:43;;;;;;;13.63;12.63;;;29.50;99.90;;;;;;5044149;28;20488;-59
2023/08/19 11:52:19;;;;;;;13.03;12.10;;;29.40;99.90;;;;;;5047866;28;20470;-59
2023/08/19 11:54:59;;;;;;;13.87;12.90;;;29.30;99.90;;;;;;5047487;28;21003;-58
2023/08/19 11:57:31;;;;;;;14.30;13.10;;;29.20;99.90;;;;;;5044058;28;20476;-56
2023/08/19 11:59:59;;;;;;;14.10;13.17;;;29.10;99.90;;;;;;5044108;28;20465;-56
2023/08/19 12:02:28;;;;;;;14.03;12.90;;;29.00;99.90;;;;;;5050988;28;20477;-56
2023/08/19 12:04:56;;;;;;;13.67;12.70;;;28.90;99.90;;;;;;5049029;28;20493;-57
2023/08/19 12:07:30;;;;;;;14.67;13.67;;;28.80;99.90;;;;;;5049593;28;20476;-55
2023/08/19 12:09:58;;;;;;;14.50;13.50;;;28.70;99.90;;;;;;5049832;28;20485;-59
2023/08/19 12:12:28;;;;;;;14.70;13.40;;;28.70;99.90;;;;;;5043435;28;20472;-57
2023/08/19 12:14:58;;;;;;;14.17;12.97;;;28.60;99.90;;;;;;5051388;28;20487;-55
2023/08/19 12:17:26;;;;;;;14.83;13.70;;;28.60;99.90;;;;;;5045033;28;20545;-59
2023/08/19 12:19:55;;;;;;;15.20;13.90;;;28.50;99.90;;;;;;5051536;28;20469;-59
2023/08/19 12:22:23;;;;;;;16.93;15.67;;;28.50;99.90;;;;;;5049279;28;20925;-60
2023/08/19 12:24:53;;;;;;;15.77;14.57;;;28.40;99.90;;;;;;5037028;28;20486;-58
2023/08/19 12:27:21;;;;;;;13.87;12.87;;;28.40;99.90;;;;;;5045619;28;20556;-59
2023/08/19 12:29:50;;;;;;;13.63;12.63;;;28.40;99.90;;;;;;5047845;28;21028;-58
2023/08/19 12:32:18;;;;;;;14.87;13.37;;;28.40;99.90;;;;;;5043991;28;20606;-59
2023/08/19 12:34:46;;;;;;;14.90;13.80;;;28.40;99.90;;;;;;5046319;28;20504;-59
2023/08/19 12:37:13;;;;;;;14.40;13.40;;;28.50;99.90;;;;;;5047973;28;20479;-59
2023/08/19 12:39:41;;;;;;;14.63;13.33;;;28.50;99.90;;;;;;5049000;28;20467;-56